Time;durP1;ratioP1;P1;durP2;ratioP2;P2;SDS_P1;SDS_P2;PMS_P1;PMS_P2;Temp;Humidity;BMP_temperature;BMP_pressure;BME280_temperature;BME280_humidity;BME280_pressure;Samples;Min_cycle;Max_cycle;Signal;HPM_P1;HPM_P2
2022/09/20 00:01:13;;;;;;;8.50;1.70;;;8.70;99.90;;;;;;5052085;28;20055;-71
2022/09/20 00:03:42;;;;;;;9.73;1.30;;;8.80;99.90;;;;;;5069022;28;20123;-72
2022/09/20 00:06:11;;;;;;;8.73;1.37;;;8.70;99.90;;;;;;5064233;28;20051;-72
2022/09/20 00:08:37;;;;;;;10.10;1.33;;;8.70;99.90;;;;;;5059791;28;20080;-71
2022/09/20 00:11:14;;;;;;;8.53;1.20;;;8.60;99.90;;;;;;5051779;28;20040;-72
2022/09/20 00:13:41;;;;;;;7.87;1.03;;;8.60;99.90;;;;;;5062140;28;20557;-71
2022/09/20 00:16:11;;;;;;;10.90;1.67;;;8.50;99.90;;;;;;5059000;28;20131;-72
2022/09/20 00:18:36;;;;;;;8.47;1.23;;;8.50;99.90;;;;;;5047241;28;20091;-71
2022/09/20 00:21:03;;;;;;;6.63;1.23;;;8.50;99.90;;;;;;5049375;28;20061;-71
2022/09/20 00:23:29;;;;;;;8.60;1.40;;;8.40;99.90;;;;;;5063265;28;20044;-72
2022/09/20 00:26:00;;;;;;;10.97;1.50;;;8.40;99.90;;;;;;5051827;28;20102;-72
2022/09/20 00:28:27;;;;;;;8.50;1.30;;;8.30;99.90;;;;;;5051952;28;20561;-72
2022/09/20 00:30:54;;;;;;;12.70;1.47;;;8.40;99.90;;;;;;5068943;28;20123;-72
2022/09/20 00:33:21;;;;;;;7.77;1.60;;;8.40;99.90;;;;;;5051087;28;20143;-72
2022/09/20 00:35:47;;;;;;;13.57;1.60;;;8.40;99.90;;;;;;5079285;28;20054;-71
2022/09/20 00:38:13;;;;;;;11.27;1.67;;;8.40;99.90;;;;;;5057887;28;20048;-72
2022/09/20 00:40:40;;;;;;;8.27;1.27;;;8.40;99.90;;;;;;5069814;28;20091;-72
2022/09/20 00:43:06;;;;;;;7.17;1.43;;;8.40;99.90;;;;;;5067537;28;20037;-72
2022/09/20 00:45:33;;;;;;;9.63;1.57;;;8.40;99.90;;;;;;5067243;28;20114;-72
2022/09/20 00:48:12;;;;;;;8.43;1.53;;;8.30;99.90;;;;;;5053163;28;20041;-72
2022/09/20 00:50:50;;;;;;;10.53;1.40;;;8.20;99.90;;;;;;5072129;28;20056;-72
2022/09/20 00:53:30;;;;;;;9.13;1.53;;;8.20;99.90;;;;;;5072206;28;20090;-72
2022/09/20 00:56:19;;;;;;;13.37;1.53;;;8.20;99.90;;;;;;5072977;28;20128;-72
2022/09/20 00:58:58;;;;;;;11.53;1.37;;;8.10;99.90;;;;;;5057826;28;20048;-72
2022/09/20 01:01:24;;;;;;;7.53;1.60;;;8.10;99.90;;;;;;5071685;28;20051;-72
2022/09/20 01:03:51;;;;;;;8.40;1.27;;;8.20;99.90;;;;;;5070896;28;20415;-72
2022/09/20 01:06:17;;;;;;;10.23;1.63;;;8.10;99.90;;;;;;5060798;28;20080;-72
2022/09/20 01:08:48;;;;;;;8.50;1.13;;;8.10;99.90;;;;;;5067143;28;20602;-72
2022/09/20 01:11:13;;;;;;;6.95;1.30;;;8.10;99.90;;;;;;5071433;28;20051;-72
2022/09/20 01:13:39;;;;;;;9.57;1.83;;;8.10;99.90;;;;;;5072221;28;20059;-71
2022/09/20 01:16:06;;;;;;;10.60;1.40;;;8.00;99.90;;;;;;5071296;28;20099;-72
2022/09/20 01:18:35;;;;;;;10.03;1.20;;;7.90;99.90;;;;;;5046567;28;20060;-72
2022/09/20 01:21:02;;;;;;;9.37;1.43;;;8.20;99.90;;;;;;5054133;28;20127;-72
2022/09/20 01:24:07;;;;;;;8.63;1.20;;;8.00;99.90;;;;;;5072033;28;20504;-71
2022/09/20 01:26:47;;;;;;;8.40;1.60;;;8.00;99.90;;;;;;5037542;28;20472;-72
2022/09/20 01:29:34;;;;;;;11.90;1.80;;;8.00;99.90;;;;;;5050303;28;20069;-72
2022/09/20 01:32:04;;;;;;;12.50;1.60;;;8.00;99.90;;;;;;5051452;28;20658;-72
2022/09/20 01:34:34;;;;;;;14.65;1.70;;;8.00;99.90;;;;;;5030537;28;20041;-72
2022/09/20 01:37:11;;;;;;;12.87;1.70;;;8.00;99.90;;;;;;5017390;28;20120;-71
2022/09/20 01:39:57;;;;;;;6.63;1.47;;;8.00;99.90;;;;;;5032819;28;20050;-72
2022/09/20 01:42:31;;;;;;;10.20;1.80;;;8.00;99.90;;;;;;5048010;28;20061;-71
2022/09/20 01:45:19;;;;;;;7.73;1.97;;;8.00;99.90;;;;;;5050869;28;20061;-71
2022/09/20 01:47:58;;;;;;;10.63;1.40;;;8.00;99.90;;;;;;5022257;28;20056;-71
2022/09/20 01:50:34;;;;;;;9.73;1.23;;;7.90;99.90;;;;;;5032218;28;20045;-72
2022/09/20 01:53:20;;;;;;;9.73;1.40;;;8.00;99.90;;;;;;5032839;28;20137;-72
2022/09/20 01:56:28;;;;;;;9.07;1.67;;;7.90;99.90;;;;;;5052102;28;20389;-71
2022/09/20 01:59:15;;;;;;;11.90;1.97;;;7.90;99.90;;;;;;5027059;28;20044;-71
2022/09/20 02:01:53;;;;;;;7.27;1.40;;;7.90;99.90;;;;;;5032395;28;20049;-72
2022/09/20 02:04:40;;;;;;;11.53;1.50;;;7.90;99.90;;;;;;5058749;28;20146;-71
2022/09/20 02:07:27;;;;;;;12.20;1.73;;;7.80;99.90;;;;;;5052422;28;20057;-72
2022/09/20 02:10:17;;;;;;;10.27;1.67;;;7.80;99.90;;;;;;5069619;28;20507;-71
2022/09/20 02:13:01;;;;;;;16.20;1.50;;;7.90;99.90;;;;;;5069164;28;20082;-72
2022/09/20 02:15:48;;;;;;;5.07;1.33;;;7.90;99.90;;;;;;5070386;28;20048;-71
2022/09/20 02:18:29;;;;;;;7.37;1.70;;;7.90;99.90;;;;;;5033979;28;20045;-72
2022/09/20 02:21:01;;;;;;;8.85;1.50;;;7.90;99.90;;;;;;5051124;28;20053;-71
2022/09/20 02:23:45;;;;;;;10.33;1.33;;;8.00;99.90;;;;;;5063166;28;20131;-71
2022/09/20 02:26:38;;;;;;;7.23;1.23;;;8.00;99.90;;;;;;5054101;28;20037;-72
2022/09/20 02:29:16;;;;;;;6.83;1.30;;;8.00;99.90;;;;;;5048901;28;20090;-72
2022/09/20 02:31:59;;;;;;;7.27;1.60;;;8.00;99.90;;;;;;5051699;28;20421;-71
2022/09/20 02:35:05;;;;;;;5.30;1.40;;;8.00;99.90;;;;;;5062585;28;20044;-71
2022/09/20 02:38:07;;;;;;;7.30;1.50;;;8.00;99.90;;;;;;5035607;28;20041;-70
2022/09/20 02:40:48;;;;;;;10.10;1.60;;;8.00;99.90;;;;;;5060709;28;20044;-71
2022/09/20 02:43:37;;;;;;;8.52;1.42;;;8.10;99.90;;;;;;5067504;28;20056;-72
2022/09/20 02:46:25;;;;;;;6.67;1.63;;;8.10;99.90;;;;;;5069962;28;20393;-71
2022/09/20 02:49:02;;;;;;;9.97;1.57;;;8.10;99.90;;;;;;5066948;28;20041;-72
2022/09/20 02:51:50;;;;;;;11.57;1.67;;;8.10;99.90;;;;;;5070577;28;20543;-72
2022/09/20 02:54:41;;;;;;;10.20;1.43;;;8.10;99.90;;;;;;5070500;28;20048;-72
2022/09/20 02:57:32;;;;;;;8.50;1.23;;;8.10;99.90;;;;;;5053361;28;20052;-72
2022/09/20 03:00:09;;;;;;;7.75;1.50;;;8.10;99.90;;;;;;5070759;28;20040;-72
2022/09/20 03:02:50;;;;;;;8.33;1.30;;;8.10;99.90;;;;;;5055321;28;20044;-72
2022/09/20 03:05:49;;;;;;;4.82;0.95;;;8.10;99.90;;;;;;5051186;28;20049;-71
2022/09/20 03:08:33;;;;;;;11.03;1.50;;;8.10;99.90;;;;;;5043932;28;20079;-71
2022/09/20 03:11:25;;;;;;;10.50;1.60;;;8.10;99.90;;;;;;5068582;28;20063;-72
2022/09/20 03:14:09;;;;;;;11.03;1.23;;;8.10;99.90;;;;;;5067590;28;20110;-72
2022/09/20 03:17:02;;;;;;;6.93;1.50;;;8.10;99.90;;;;;;5055238;28;20114;-72
2022/09/20 03:19:55;;;;;;;8.43;1.53;;;8.00;99.90;;;;;;5058149;28;20404;-72
2022/09/20 03:22:44;;;;;;;8.33;1.70;;;8.10;99.90;;;;;;5069482;28;20121;-71
2022/09/20 03:25:20;;;;;;;8.50;1.50;;;8.20;99.90;;;;;;5065075;28;20067;-72
2022/09/20 03:28:09;;;;;;;9.77;1.60;;;8.20;99.90;;;;;;5044274;28;20270;-71
2022/09/20 03:30:55;;;;;;;4.80;1.13;;;8.20;99.90;;;;;;5049343;28;20057;-72
2022/09/20 03:33:36;;;;;;;5.87;1.30;;;8.30;99.90;;;;;;5048338;28;20470;-72
2022/09/20 03:36:23;;;;;;;6.38;1.30;;;8.40;99.90;;;;;;5050552;28;20057;-72
2022/09/20 03:39:00;;;;;;;6.47;1.57;;;8.40;99.90;;;;;;5057613;28;20488;-72
2022/09/20 03:42:07;;;;;;;6.97;1.40;;;8.50;99.90;;;;;;5068333;28;20068;-72
2022/09/20 03:44:46;;;;;;;7.57;1.70;;;8.60;99.90;;;;;;5012136;28;20133;-72
2022/09/20 03:47:36;;;;;;;7.27;1.50;;;8.90;99.90;;;;;;5033849;28;20080;-71
2022/09/20 03:50:11;;;;;;;8.07;1.30;;;9.20;99.90;;;;;;5070382;28;20053;-72
2022/09/20 03:53:14;;;;;;;9.50;1.10;;;9.20;99.90;;;;;;5068781;28;20076;-72
2022/09/20 03:55:52;;;;;;;6.97;1.30;;;9.20;99.90;;;;;;5068967;28;20059;-72
2022/09/20 04:02:19;;;;;;;7.17;1.20;;;9.10;99.90;;;;;;5051236;28;20478;-72
2022/09/20 04:04:53;;;;;;;5.10;0.93;;;9.20;99.90;;;;;;5060436;28;20178;-72
2022/09/20 04:07:40;;;;;;;7.70;1.17;;;9.20;99.90;;;;;;5041183;28;20147;-72
2022/09/20 04:10:28;;;;;;;8.37;1.70;;;9.20;99.90;;;;;;5068787;28;20041;-72
2022/09/20 04:12:57;;;;;;;4.53;1.00;;;9.30;99.90;;;;;;5062973;28;20044;-72
2022/09/20 04:15:42;;;;;;;6.47;1.20;;;9.30;99.90;;;;;;5068636;28;20060;-72
2022/09/20 04:18:19;;;;;;;8.87;1.30;;;9.30;99.90;;;;;;5051910;28;20044;-72
2022/09/20 04:21:01;;;;;;;4.97;1.27;;;9.30;99.90;;;;;;5068870;28;20055;-72
2022/09/20 04:23:35;;;;;;;11.20;1.27;;;9.30;99.90;;;;;;5055165;28;20048;-72
2022/09/20 04:26:02;;;;;;;7.77;1.20;;;9.30;99.90;;;;;;5064936;28;20123;-72
2022/09/20 04:28:47;;;;;;;8.13;1.33;;;9.30;99.90;;;;;;5052675;28;20086;-72
2022/09/20 04:31:44;;;;;;;5.60;1.20;;;9.30;99.90;;;;;;5055623;28;20049;-72
2022/09/20 04:37:34;;;;;;;11.40;1.70;;;9.40;99.90;;;;;;5048520;28;20052;-72
2022/09/20 04:40:32;;;;;;;11.73;1.67;;;9.30;99.90;;;;;;5066098;28;20041;-72
2022/09/20 04:43:26;;;;;;;8.30;1.50;;;9.40;99.90;;;;;;5067444;28;20415;-72
2022/09/20 04:45:59;;;;;;;8.73;1.47;;;9.40;99.90;;;;;;5062367;28;20063;-73
2022/09/20 04:48:50;;;;;;;10.23;1.77;;;9.30;99.90;;;;;;5062612;28;20036;-72
2022/09/20 04:51:44;;;;;;;9.80;1.80;;;9.30;99.90;;;;;;5079922;28;20511;-72
2022/09/20 04:54:28;;;;;;;7.47;1.57;;;9.30;99.90;;;;;;5051721;28;20135;-73
2022/09/20 04:57:03;;;;;;;9.03;1.67;;;9.40;99.90;;;;;;5047754;28;20049;-73
2022/09/20 04:59:52;;;;;;;8.07;1.63;;;9.30;99.90;;;;;;5048505;28;20048;-72
2022/09/20 05:02:38;;;;;;;7.30;1.50;;;9.40;99.90;;;;;;5050838;28;20053;-72
2022/09/20 05:05:33;;;;;;;11.23;1.50;;;9.40;99.90;;;;;;5053334;28;20053;-72
2022/09/20 05:08:36;;;;;;;6.50;1.30;;;9.30;99.90;;;;;;5040933;28;20037;-72
2022/09/20 05:11:08;;;;;;;8.00;1.80;;;9.40;99.90;;;;;;5086431;28;20045;-72
2022/09/20 05:13:56;;;;;;;9.27;1.60;;;9.50;99.90;;;;;;5058930;28;20123;-72
2022/09/20 05:16:43;;;;;;;11.97;1.70;;;9.50;99.90;;;;;;5056116;28;20059;-72
2022/09/20 05:19:34;;;;;;;4.13;1.10;;;9.50;99.90;;;;;;5071520;28;20140;-72
2022/09/20 05:22:18;;;;;;;10.53;1.67;;;9.50;99.90;;;;;;5071127;28;20067;-72
2022/09/20 05:25:24;;;;;;;7.90;1.57;;;9.50;99.90;;;;;;5064093;28;20052;-72
2022/09/20 05:28:18;;;;;;;8.80;1.57;;;9.50;99.90;;;;;;5052751;28;20039;-72
2022/09/20 05:30:52;;;;;;;5.83;1.43;;;9.50;99.90;;;;;;5065798;28;20052;-74
2022/09/20 05:33:43;;;;;;;9.07;1.57;;;9.50;99.90;;;;;;5053230;28;20384;-73
2022/09/20 05:36:21;;;;;;;7.28;1.40;;;9.50;99.90;;;;;;5061578;28;20063;-74
2022/09/20 05:39:08;;;;;;;6.57;1.63;;;9.50;99.90;;;;;;5063637;28;20056;-74
2022/09/20 05:42:01;;;;;;;9.83;1.80;;;9.50;99.90;;;;;;5068293;28;20610;-73
2022/09/20 05:44:45;;;;;;;6.93;1.43;;;9.50;99.90;;;;;;5070101;28;20044;-74
2022/09/20 05:47:33;;;;;;;8.43;1.43;;;9.40;99.90;;;;;;5066498;28;20056;-74
2022/09/20 05:50:14;;;;;;;10.40;1.80;;;9.50;99.90;;;;;;5054641;28;20047;-74
2022/09/20 05:53:18;;;;;;;9.00;1.60;;;9.50;99.90;;;;;;5051323;28;20072;-74
2022/09/20 05:56:17;;;;;;;5.97;1.40;;;9.50;99.90;;;;;;5051760;28;20510;-74
2022/09/20 05:58:58;;;;;;;9.30;1.50;;;9.40;99.90;;;;;;5045096;28;20049;-74
2022/09/20 06:01:43;;;;;;;5.53;1.50;;;9.60;99.90;;;;;;5033965;28;20103;-74
2022/09/20 06:04:33;;;;;;;6.97;1.87;;;9.50;99.90;;;;;;5049829;28;20071;-74
2022/09/20 06:07:12;;;;;;;12.10;1.77;;;9.60;99.90;;;;;;5035520;28;20056;-74
2022/09/20 06:09:55;;;;;;;11.73;1.73;;;9.60;99.90;;;;;;5082961;28;20048;-74
2022/09/20 06:12:37;;;;;;;8.27;1.60;;;9.70;99.90;;;;;;5043661;28;20102;-74
2022/09/20 06:15:06;;;;;;;3.47;1.30;;;9.80;99.90;;;;;;5051879;28;20048;-74
2022/09/20 06:17:47;;;;;;;9.20;1.52;;;9.80;99.90;;;;;;5034128;28;20057;-73
2022/09/20 06:20:16;;;;;;;4.50;1.20;;;9.80;99.90;;;;;;5051581;28;20053;-74
2022/09/20 06:22:49;;;;;;;5.97;1.10;;;9.80;99.90;;;;;;5049112;28;20045;-74
2022/09/20 06:25:20;;;;;;;7.70;1.48;;;9.80;99.90;;;;;;5049850;28;20615;-71
2022/09/20 06:27:51;;;;;;;4.85;1.30;;;9.80;99.90;;;;;;5034109;28;20567;-71
2022/09/20 06:30:25;;;;;;;7.50;1.00;;;9.90;99.90;;;;;;5051545;28;20044;-71
2022/09/20 06:33:15;;;;;;;5.90;1.37;;;9.90;99.90;;;;;;5050835;28;20063;-71
2022/09/20 06:41:25;;;;;;;4.37;1.10;;;10.00;99.90;;;;;;5050555;28;20535;-70
2022/09/20 06:41:46;;;;;;;12.80;1.47;;;10.00;99.90;;;;;;5050855;28;20439;-70
2022/09/20 06:44:12;;;;;;;7.87;1.03;;;10.10;99.90;;;;;;5061116;28;20057;-71
2022/09/20 06:46:40;;;;;;;4.70;1.17;;;10.00;99.90;;;;;;5040022;28;20052;-71
2022/09/20 06:49:09;;;;;;;19.30;6.25;;;10.10;99.90;;;;;;5041843;28;20133;-71
2022/09/20 06:51:37;;;;;;;11.65;3.13;;;10.10;99.90;;;;;;5033405;28;20052;-71
2022/09/20 06:54:05;;;;;;;11.68;1.80;;;10.20;99.90;;;;;;5029976;28;20045;-71
2022/09/20 06:56:35;;;;;;;5.45;1.30;;;10.20;99.90;;;;;;5037014;28;20045;-71
2022/09/20 06:59:02;;;;;;;8.95;1.20;;;10.30;99.90;;;;;;5046674;28;20041;-71
2022/09/20 07:01:28;;;;;;;5.30;1.23;;;10.30;99.90;;;;;;5051100;28;20072;-71
2022/09/20 07:03:54;;;;;;;5.07;1.02;;;10.40;99.90;;;;;;5069061;28;20076;-71
2022/09/20 07:06:19;;;;;;;4.75;0.95;;;10.40;99.90;;;;;;5025261;28;20045;-71
2022/09/20 07:08:46;;;;;;;8.70;1.25;;;10.30;99.90;;;;;;5043590;28;20051;-71
2022/09/20 07:11:15;;;;;;;6.03;1.05;;;10.50;99.90;;;;;;5050352;28;20044;-71
2022/09/20 07:13:48;;;;;;;8.07;2.03;;;10.60;99.90;;;;;;5043267;28;20045;-72
2022/09/20 07:16:14;;;;;;;7.30;2.80;;;10.70;99.90;;;;;;5041795;28;20045;-71
2022/09/20 07:18:40;;;;;;;11.23;2.70;;;10.70;99.90;;;;;;5042207;28;20159;-71
2022/09/20 07:21:16;;;;;;;9.25;1.90;;;10.80;99.90;;;;;;5049127;28;20136;-71
2022/09/20 07:23:44;;;;;;;8.73;1.60;;;10.80;99.90;;;;;;5049422;28;20052;-71
2022/09/20 07:26:22;;;;;;;4.38;1.33;;;10.90;99.90;;;;;;5044416;28;20048;-72
2022/09/20 07:28:48;;;;;;;5.88;1.17;;;10.90;99.90;;;;;;5031563;28;20049;-73
2022/09/20 07:31:16;;;;;;;9.82;1.30;;;10.90;99.90;;;;;;5036958;28;20053;-72
2022/09/20 07:33:41;;;;;;;6.10;0.82;;;11.00;99.90;;;;;;5030058;28;20424;-72
2022/09/20 07:36:09;;;;;;;6.45;1.48;;;11.20;99.90;;;;;;5037839;28;20052;-72
2022/09/20 07:38:35;;;;;;;4.95;1.10;;;11.70;99.90;;;;;;5038389;28;20053;-72
2022/09/20 07:41:01;;;;;;;7.50;1.17;;;11.80;99.90;;;;;;5046429;28;20049;-72
2022/09/20 07:43:28;;;;;;;7.75;1.20;;;11.90;99.90;;;;;;5051236;28;20095;-72
2022/09/20 07:45:56;;;;;;;3.95;0.93;;;11.90;99.90;;;;;;5047331;28;20642;-72
2022/09/20 07:48:24;;;;;;;3.97;0.90;;;12.00;99.90;;;;;;5060908;28;20052;-72
2022/09/20 07:51:01;;;;;;;6.40;1.10;;;12.10;99.90;;;;;;5077152;28;20133;-72
2022/09/20 07:53:27;;;;;;;5.00;0.85;;;12.30;99.90;;;;;;5071727;28;20057;-72
2022/09/20 07:55:57;;;;;;;6.95;0.82;;;12.40;99.90;;;;;;5071388;28;20178;-73
2022/09/20 07:58:23;;;;;;;7.07;0.90;;;12.50;99.90;;;;;;5031585;28;20048;-72
2022/09/20 08:01:00;;;;;;;5.65;0.90;;;12.50;99.90;;;;;;5048458;28;20053;-73
2022/09/20 08:03:28;;;;;;;6.32;0.95;;;12.60;99.90;;;;;;5047900;28;20044;-73
2022/09/20 08:06:01;;;;;;;6.55;0.90;;;12.70;99.90;;;;;;5048400;28;20076;-73
2022/09/20 08:08:30;;;;;;;7.88;1.15;;;12.80;99.90;;;;;;5033351;28;20500;-73
2022/09/20 08:11:08;;;;;;;4.70;0.77;;;13.00;99.90;;;;;;5030421;28;20049;-73
2022/09/20 08:13:38;;;;;;;8.13;1.05;;;13.00;99.90;;;;;;5048495;28;20500;-73
2022/09/20 08:16:06;;;;;;;5.82;0.88;;;13.20;99.90;;;;;;5049467;28;20186;-73
2022/09/20 08:18:33;;;;;;;6.47;1.00;;;13.30;99.90;;;;;;5036797;28;20095;-74
2022/09/20 08:21:10;;;;;;;5.97;1.08;;;13.40;99.90;;;;;;5048136;28;20408;-73
2022/09/20 08:23:41;;;;;;;5.28;0.98;;;13.30;99.90;;;;;;5060968;28;20040;-73
2022/09/20 08:26:11;;;;;;;4.75;0.63;;;13.40;99.90;;;;;;5036868;28;20048;-73
2022/09/20 08:28:37;;;;;;;6.85;0.88;;;13.40;99.90;;;;;;5024430;28;20057;-73
2022/09/20 08:31:08;;;;;;;7.60;1.00;;;13.50;99.90;;;;;;5029439;28;20106;-73
2022/09/20 08:33:37;;;;;;;;;;;13.70;99.90;;;;;;5047673;28;20504;-73
2022/09/20 08:36:04;;;;;;;7.38;0.90;;;14.00;99.90;;;;;;5049425;28;19931;-74
2022/09/20 08:38:31;;;;;;;5.38;0.77;;;14.10;99.90;;;;;;5034092;28;20056;-74
2022/09/20 08:41:03;;;;;;;4.75;0.68;;;14.20;99.90;;;;;;5049499;28;20045;-75
2022/09/20 08:43:34;;;;;;;5.63;0.80;;;14.10;99.90;;;;;;5047269;28;20048;-73
2022/09/20 08:46:01;;;;;;;;;;;14.00;99.90;;;;;;5050090;28;20476;-73
2022/09/20 08:48:34;;;;;;;4.00;0.60;;;14.00;99.90;;;;;;5031871;28;19925;-73
2022/09/20 08:51:06;;;;;;;3.70;0.70;;;14.10;99.90;;;;;;5031571;28;20477;-73
2022/09/20 08:53:32;;;;;;;3.63;0.50;;;14.10;99.90;;;;;;5034265;28;20090;-74
2022/09/20 08:55:59;;;;;;;4.57;0.70;;;14.10;99.90;;;;;;5048197;28;20044;-73
2022/09/20 08:58:26;;;;;;;2.47;0.60;;;14.20;99.90;;;;;;5033417;28;20037;-74
2022/09/20 09:00:54;;;;;;;3.03;0.50;;;14.20;99.90;;;;;;5048205;28;20510;-73
2022/09/20 09:03:20;;;;;;;6.28;0.85;;;14.10;99.90;;;;;;5048711;28;20064;-74
2022/09/20 09:05:48;;;;;;;4.53;0.63;;;14.20;99.90;;;;;;5050649;28;20076;-73
2022/09/20 09:08:20;;;;;;;6.03;0.93;;;14.20;99.90;;;;;;5043419;28;20155;-73
2022/09/20 09:10:56;;;;;;;4.35;0.50;;;14.10;99.90;;;;;;5032597;28;20136;-74
2022/09/20 09:13:51;;;;;;;5.60;0.70;;;14.10;99.90;;;;;;5051012;28;20525;-73
2022/09/20 09:16:18;;;;;;;4.30;0.80;;;14.10;99.90;;;;;;5042252;28;20084;-73
2022/09/20 09:18:46;;;;;;;8.25;0.77;;;14.20;99.90;;;;;;5045796;28;20086;-72
2022/09/20 09:21:17;;;;;;;3.53;0.55;;;14.40;99.90;;;;;;5051646;28;20128;-73
2022/09/20 09:24:02;;;;;;;3.45;0.45;;;14.50;99.90;;;;;;5051621;28;20127;-74
2022/09/20 09:26:38;;;;;;;4.80;0.68;;;14.60;99.90;;;;;;5022371;28;20063;-74
2022/09/20 09:29:17;;;;;;;4.85;0.70;;;14.70;99.90;;;;;;5030107;28;20144;-74
2022/09/20 09:31:45;;;;;;;4.05;0.50;;;14.90;99.90;;;;;;5035230;28;20048;-73
2022/09/20 09:34:32;;;;;;;2.15;0.38;;;14.90;99.90;;;;;;5041956;28;20045;-72
2022/09/20 09:36:58;;;;;;;4.72;0.40;;;14.90;99.90;;;;;;5036932;28;20492;-72
2022/09/20 09:39:29;;;;;;;5.03;0.50;;;14.80;99.90;;;;;;5032064;28;20215;-72
2022/09/20 09:41:56;;;;;;;5.72;0.73;;;14.90;99.90;;;;;;5034305;28;20041;-72
2022/09/20 09:44:26;;;;;;;2.17;0.28;;;14.90;99.90;;;;;;5032004;28;20136;-72
2022/09/20 09:46:53;;;;;;;5.60;0.60;;;14.90;99.90;;;;;;5037099;28;20451;-73
2022/09/20 09:49:31;;;;;;;5.93;0.68;;;15.00;99.90;;;;;;5038762;28;20072;-72
2022/09/20 09:52:05;;;;;;;6.47;0.60;;;15.00;99.90;;;;;;5051237;28;20608;-72
2022/09/20 09:54:41;;;;;;;2.60;0.50;;;15.00;99.90;;;;;;5070086;28;20499;-73
2022/09/20 09:57:37;;;;;;;2.88;0.30;;;15.10;99.90;;;;;;5045725;28;20510;-73
2022/09/20 10:00:16;;;;;;;3.90;0.57;;;15.40;99.90;;;;;;5051488;28;20126;-72
2022/09/20 10:03:03;;;;;;;4.18;0.50;;;15.50;99.90;;;;;;5054731;28;20054;-72
2022/09/20 10:05:43;;;;;;;5.72;0.70;;;15.50;99.90;;;;;;5070520;28;20049;-72
2022/09/20 10:08:27;;;;;;;7.22;0.60;;;15.50;99.90;;;;;;5054482;28;20045;-72
2022/09/20 10:11:22;;;;;;;4.07;0.60;;;15.50;99.90;;;;;;5086742;28;20060;-72
2022/09/20 10:14:10;;;;;;;4.50;0.80;;;15.50;99.90;;;;;;5049268;28;20094;-73
2022/09/20 10:16:59;;;;;;;3.25;0.52;;;15.50;99.90;;;;;;5037801;28;20091;-73
2022/09/20 10:19:44;;;;;;;3.95;0.60;;;15.70;99.90;;;;;;5050974;28;20045;-72
2022/09/20 10:22:26;;;;;;;4.93;0.63;;;15.90;99.90;;;;;;5050377;28;20076;-72
2022/09/20 10:25:09;;;;;;;4.95;0.68;;;15.90;99.90;;;;;;5049905;28;20067;-73
2022/09/20 10:27:43;;;;;;;6.63;0.80;;;15.80;99.90;;;;;;5043818;28;20041;-72
2022/09/20 10:30:20;;;;;;;4.28;0.82;;;15.90;99.90;;;;;;5071478;28;20143;-73
2022/09/20 10:33:12;;;;;;;7.75;0.85;;;16.10;99.90;;;;;;5059839;28;20068;-72
2022/09/20 10:35:50;;;;;;;6.88;0.70;;;16.00;99.90;;;;;;5051805;28;20047;-73
2022/09/20 10:38:23;;;;;;;3.58;0.60;;;16.00;99.90;;;;;;5049071;28;20083;-72
2022/09/20 10:44:25;;;;;;;4.72;0.75;;;15.90;99.90;;;;;;5070490;28;20114;-73
2022/09/20 10:47:22;;;;;;;3.88;0.80;;;15.70;99.90;;;;;;5052686;28;20044;-73
2022/09/20 10:50:03;;;;;;;5.60;1.02;;;15.70;99.90;;;;;;5048351;28;20060;-72
2022/09/20 10:52:38;;;;;;;5.93;0.95;;;15.50;99.90;;;;;;5049841;28;20639;-71
2022/09/20 10:55:24;;;;;;;7.22;0.80;;;15.50;99.90;;;;;;5051110;28;20056;-73
2022/09/20 10:57:49;;;;;;;5.57;0.73;;;15.40;99.90;;;;;;5033509;28;20053;-73
2022/09/20 11:00:28;;;;;;;4.90;0.70;;;15.50;99.90;;;;;;5041913;28;20084;-72
2022/09/20 11:03:03;;;;;;;7.68;1.10;;;15.50;99.90;;;;;;5032701;28;20099;-72
2022/09/20 11:06:06;;;;;;;4.72;0.80;;;15.60;99.90;;;;;;5029854;28;20409;-72
2022/09/20 11:08:35;;;;;;;5.88;0.88;;;15.60;99.90;;;;;;5028621;28;20097;-72
2022/09/20 11:11:04;;;;;;;5.57;0.70;;;15.80;99.90;;;;;;5069385;28;20048;-72
2022/09/20 11:13:45;;;;;;;8.02;0.70;;;15.80;99.90;;;;;;5067543;28;20041;-72
2022/09/20 11:16:21;;;;;;;5.88;0.90;;;15.80;99.90;;;;;;5055708;28;20088;-72
2022/09/20 11:18:50;;;;;;;6.70;0.90;;;15.70;99.90;;;;;;5047693;28;20083;-72
2022/09/20 11:21:31;;;;;;;5.95;0.63;;;15.60;99.90;;;;;;5069235;28;20524;-71
2022/09/20 11:24:29;;;;;;;4.18;0.63;;;15.70;99.90;;;;;;5081874;28;20044;-73
2022/09/20 11:27:06;;;;;;;4.57;0.55;;;15.80;99.90;;;;;;5054682;28;20052;-72
2022/09/20 11:29:34;;;;;;;3.47;0.40;;;15.90;99.90;;;;;;5058554;28;20127;-72
2022/09/20 11:32:24;;;;;;;3.47;0.60;;;15.80;99.90;;;;;;5050268;28;20040;-72
2022/09/20 11:35:00;;;;;;;5.40;0.82;;;15.70;99.90;;;;;;5062438;28;20500;-73
2022/09/20 11:37:32;;;;;;;3.25;0.60;;;15.70;99.90;;;;;;5045968;28;20059;-72
2022/09/20 11:40:00;;;;;;;;;;;15.70;99.90;;;;;;5069546;28;20055;-72
2022/09/20 11:42:35;;;;;;;2.38;0.60;;;15.80;99.90;;;;;;5069121;28;19920;-72
2022/09/20 11:45:02;;;;;;;5.28;0.75;;;16.00;99.90;;;;;;5070634;28;20049;-72
2022/09/20 11:47:41;;;;;;;4.43;0.73;;;16.20;99.90;;;;;;5052599;28;20498;-71
2022/09/20 11:50:22;;;;;;;4.38;0.55;;;16.10;99.90;;;;;;5052058;28;20056;-72
2022/09/20 11:53:19;;;;;;;3.72;0.50;;;16.20;99.90;;;;;;5069422;28;20045;-72
2022/09/20 11:56:00;;;;;;;3.25;0.65;;;16.20;99.90;;;;;;5069532;28;20149;-72
2022/09/20 11:58:26;;;;;;;5.68;0.50;;;16.40;99.90;;;;;;5033594;28;20377;-71
2022/09/20 12:00:55;;;;;;;4.97;0.70;;;16.40;99.90;;;;;;5046404;28;20061;-72
2022/09/20 12:03:48;;;;;;;3.97;0.50;;;16.30;99.90;;;;;;5067945;28;20506;-72
2022/09/20 12:06:36;;;;;;;2.72;0.50;;;16.10;99.90;;;;;;5060453;28;20407;-72
2022/09/20 12:09:24;;;;;;;5.95;0.60;;;15.80;99.90;;;;;;5052587;28;20044;-72
2022/09/20 12:11:51;;;;;;;4.18;0.55;;;15.70;99.90;;;;;;5054671;28;20041;-72
2022/09/20 12:14:22;;;;;;;4.32;0.40;;;15.80;99.90;;;;;;5055359;28;20052;-71
2022/09/20 12:16:48;;;;;;;2.15;0.40;;;15.90;99.90;;;;;;5041107;28;20041;-72
2022/09/20 12:19:20;;;;;;;3.45;0.60;;;16.00;99.90;;;;;;5066316;28;20048;-72
2022/09/20 12:22:06;;;;;;;;;;;16.20;99.90;;;;;;5068383;28;20131;-72
2022/09/20 12:24:39;;;;;;;4.40;0.60;;;16.20;99.90;;;;;;5066419;28;19931;-72
2022/09/20 12:27:19;;;;;;;3.97;0.40;;;16.30;99.90;;;;;;5040195;28;20079;-71
2022/09/20 12:29:46;;;;;;;10.10;0.80;;;16.20;99.90;;;;;;5068507;28;20076;-72
2022/09/20 12:32:37;;;;;;;2.95;0.60;;;16.20;99.90;;;;;;5067480;28;20059;-72
2022/09/20 12:35:35;;;;;;;4.15;0.55;;;16.10;99.90;;;;;;5067304;28;20049;-73
2022/09/20 12:38:19;;;;;;;4.53;0.60;;;16.00;99.90;;;;;;5049808;28;20123;-72
2022/09/20 12:41:04;;;;;;;7.20;0.77;;;15.90;99.90;;;;;;5050989;28;20056;-72
2022/09/20 12:43:32;;;;;;;2.70;0.40;;;15.90;99.90;;;;;;5068546;28;20113;-72
2022/09/20 12:45:59;;;;;;;3.33;0.30;;;15.80;99.90;;;;;;5071251;28;20521;-72
2022/09/20 12:48:25;;;;;;;5.30;0.80;;;15.60;99.90;;;;;;5055365;28;20123;-73
2022/09/20 12:54:06;;;;;;;1.73;0.40;;;15.60;99.90;;;;;;5072849;28;20071;-72
2022/09/20 12:56:38;;;;;;;5.28;0.50;;;15.70;99.90;;;;;;5058398;28;20556;-72
2022/09/20 12:59:19;;;;;;;3.13;0.57;;;15.80;99.90;;;;;;5070249;28;20503;-72
2022/09/20 13:01:46;;;;;;;2.90;0.52;;;15.90;99.90;;;;;;5071875;28;20143;-72
2022/09/20 13:04:40;;;;;;;4.20;0.57;;;15.90;99.90;;;;;;5057838;28;20447;-72
2022/09/20 13:07:32;;;;;;;5.70;0.90;;;16.00;99.90;;;;;;5037028;28;20446;-71
2022/09/20 13:10:01;;;;;;;4.78;0.90;;;16.00;99.90;;;;;;5061535;28;20067;-70
2022/09/20 13:12:27;;;;;;;4.97;0.88;;;15.90;99.90;;;;;;5077240;28;20187;-72
2022/09/20 13:14:53;;;;;;;4.53;0.70;;;15.70;99.90;;;;;;5071335;28;20044;-72
2022/09/20 13:17:29;;;;;;;5.53;0.80;;;15.50;99.90;;;;;;5056663;28;20534;-71
2022/09/20 13:19:55;;;;;;;5.00;0.65;;;15.50;99.90;;;;;;5060648;28;20492;-73
2022/09/20 13:22:42;;;;;;;5.97;0.70;;;15.50;99.90;;;;;;5060651;28;20075;-72
2022/09/20 13:25:14;;;;;;;3.50;0.60;;;15.60;99.90;;;;;;5070005;28;20051;-72
2022/09/20 13:27:49;;;;;;;5.22;0.73;;;15.70;99.90;;;;;;5061310;28;20492;-72
2022/09/20 13:30:20;;;;;;;3.08;0.57;;;15.70;99.90;;;;;;5064732;28;20040;-72
2022/09/20 13:32:46;;;;;;;4.27;0.70;;;15.70;99.90;;;;;;5069426;28;20059;-72
2022/09/20 13:35:14;;;;;;;8.02;1.08;;;15.80;99.90;;;;;;5048700;28;20295;-72
2022/09/20 13:38:05;;;;;;;6.80;0.80;;;15.90;99.90;;;;;;5052536;28;20051;-73
2022/09/20 13:40:48;;;;;;;4.13;0.60;;;15.90;99.90;;;;;;5074493;28;20045;-72
2022/09/20 13:43:27;;;;;;;4.50;0.75;;;16.00;99.90;;;;;;5060689;28;20076;-72
2022/09/20 13:46:06;;;;;;;3.97;0.60;;;16.00;99.90;;;;;;5063695;28;20348;-72
2022/09/20 13:48:31;;;;;;;7.25;0.80;;;16.00;99.90;;;;;;5050773;28;20450;-72
2022/09/20 13:50:58;;;;;;;4.22;0.55;;;16.10;99.90;;;;;;5062890;28;20549;-72
2022/09/20 13:53:26;;;;;;;5.85;0.60;;;16.10;99.90;;;;;;5056245;28;20094;-73
2022/09/20 13:55:54;;;;;;;4.35;0.93;;;16.10;99.90;;;;;;5065066;28;20810;-72
2022/09/20 13:58:32;;;;;;;5.05;0.60;;;16.10;99.90;;;;;;5034908;28;20060;-72
2022/09/20 14:01:01;;;;;;;6.47;0.70;;;16.00;99.90;;;;;;5057095;28;20094;-72